createdAt,value
2023-05-02T00:02:11.668Z,79.26
2023-05-02T00:04:39.639Z,78.53
2023-05-02T00:07:07.147Z,78.56
2023-05-02T00:09:34.710Z,78.67
2023-05-02T00:12:02.646Z,78.15
2023-05-02T00:14:30.241Z,78.58
2023-05-02T00:16:57.754Z,78.22
2023-05-02T00:19:25.386Z,77.46
2023-05-02T00:21:53.372Z,77.78
2023-05-02T00:24:21.142Z,77.46
2023-05-02T00:26:48.638Z,77.20
2023-05-02T00:29:16.189Z,77.03
2023-05-02T00:31:43.681Z,76.68
2023-05-02T00:34:11.700Z,76.95
2023-05-02T00:36:39.206Z,76.66
2023-05-02T00:39:06.669Z,76.67
2023-05-02T00:41:34.314Z,76.11
2023-05-02T00:44:02.130Z,75.71
2023-05-02T00:46:30.710Z,74.69
2023-05-02T00:48:58.426Z,74.68
2023-05-02T00:51:27.356Z,75.42
2023-05-02T00:53:55.146Z,76.21
2023-05-02T00:56:22.662Z,75.78
2023-05-02T00:58:50.541Z,75.96
2023-05-02T01:01:59.924Z,75.62
2023-05-02T01:04:45.092Z,75.71
2023-05-02T01:08:10.530Z,74.35
2023-05-02T01:11:17.107Z,74.76
2023-05-02T01:13:45.879Z,74.07
2023-05-02T01:16:17.096Z,74.93
2023-05-02T01:18:45.463Z,73.84
2023-05-02T01:21:13.432Z,74.15
2023-05-02T01:23:52.912Z,74.93
2023-05-02T01:26:52.316Z,74.62
2023-05-02T01:29:22.205Z,73.31
2023-05-02T01:31:51.522Z,73.42
2023-05-02T01:34:21.557Z,73.20
2023-05-02T01:36:51.838Z,73.52
2023-05-02T01:39:24.595Z,73.20
2023-05-02T01:41:57.100Z,73.64
2023-05-02T01:44:26.408Z,73.11
2023-05-02T01:46:56.298Z,73.44
2023-05-02T01:49:26.155Z,74.42
2023-05-02T01:51:54.027Z,74.17
2023-05-02T01:54:24.073Z,72.85
2023-05-02T01:56:53.054Z,72.78
2023-05-02T01:59:24.782Z,72.89
2023-05-02T02:01:53.488Z,72.40
2023-05-02T02:04:23.220Z,72.87
2023-05-02T02:06:58.311Z,73.40
2023-05-02T02:09:26.299Z,72.74
2023-05-02T02:12:06.241Z,74.04
2023-05-02T02:14:46.772Z,73.95
2023-05-02T02:17:32.732Z,74.22
2023-05-02T02:20:05.690Z,74.52
2023-05-02T02:22:38.901Z,72.71
2023-05-02T02:25:11.686Z,72.92
2023-05-02T02:27:41.126Z,73.13
2023-05-02T02:30:10.627Z,71.56
2023-05-02T02:32:38.798Z,71.90
2023-05-02T02:35:08.059Z,70.68
2023-05-02T02:37:58.445Z,71.12
2023-05-02T02:40:43.716Z,71.25
2023-05-02T02:43:32.673Z,71.81
2023-05-02T02:46:21.318Z,71.15
2023-05-02T02:49:23.490Z,68.99
2023-05-02T02:52:07.977Z,69.33
2023-05-02T02:54:58.740Z,71.88
2023-05-02T02:57:54.270Z,72.47
2023-05-02T03:00:26.079Z,71.42
2023-05-02T03:02:55.033Z,71.45
2023-05-02T03:05:23.942Z,71.86
2023-05-02T03:07:53.377Z,69.94
2023-05-02T03:10:23.889Z,69.61
2023-05-02T03:12:55.583Z,72.99
2023-05-02T03:15:52.002Z,73.55
2023-05-02T03:18:23.539Z,75.35
2023-05-02T03:20:51.548Z,76.44
2023-05-02T03:23:19.270Z,77.65
2023-05-02T03:25:47.111Z,77.78
2023-05-02T03:28:20.169Z,77.07
2023-05-02T03:30:49.771Z,77.42
2023-05-02T03:33:17.467Z,76.87
2023-05-02T03:35:46.988Z,76.45
2023-05-02T03:38:14.947Z,76.19
2023-05-02T03:40:44.399Z,75.11
2023-05-02T03:43:12.664Z,75.97
2023-05-02T03:45:41.099Z,75.88
2023-05-02T03:48:09.855Z,75.69
2023-05-02T03:50:38.594Z,75.52
2023-05-02T03:53:08.315Z,77.05
2023-05-02T03:55:47.463Z,77.15
2023-05-02T03:58:23.243Z,78.32
2023-05-02T04:00:52.864Z,77.72
2023-05-02T04:03:21.631Z,77.08
2023-05-02T04:05:51.594Z,76.22
2023-05-02T04:08:19.726Z,76.19
2023-05-02T04:10:47.899Z,75.54
2023-05-02T04:13:15.447Z,74.64
2023-05-02T04:15:48.086Z,75.45
2023-05-02T04:18:19.651Z,75.28
2023-05-02T04:20:48.286Z,75.17
2023-05-02T04:23:18.055Z,74.78
2023-05-02T04:25:55.160Z,72.99
2023-05-02T04:28:27.564Z,72.69
2023-05-02T04:30:56.209Z,73.15
2023-05-02T04:33:25.107Z,74.33
2023-05-02T04:35:54.627Z,75.36
2023-05-02T04:38:23.865Z,77.07
2023-05-02T04:40:52.617Z,78.52
2023-05-02T04:43:26.239Z,79.46
2023-05-02T04:46:01.650Z,78.35
2023-05-02T04:48:34.047Z,77.56
2023-05-02T04:51:01.548Z,76.53
2023-05-02T04:53:30.789Z,77.25
2023-05-02T04:55:58.479Z,75.17
2023-05-02T04:58:27.336Z,74.20
2023-05-02T05:01:00.195Z,75.54
2023-05-02T05:03:30.034Z,74.92
2023-05-02T05:05:59.227Z,73.25
2023-05-02T05:08:28.061Z,72.21
2023-05-02T05:10:56.184Z,71.32
2023-05-02T05:13:24.665Z,70.97
2023-05-02T05:15:52.833Z,69.62
2023-05-02T05:18:23.951Z,71.54
2023-05-02T05:20:51.466Z,71.74
2023-05-02T05:23:19.009Z,73.13
2023-05-02T05:25:46.674Z,72.46
2023-05-02T05:28:18.628Z,72.96
2023-05-02T05:30:46.664Z,70.61
2023-05-02T05:33:18.191Z,69.33
2023-05-02T05:35:48.177Z,65.30
2023-05-02T05:38:15.715Z,65.51
2023-05-02T05:40:45.508Z,65.08
2023-05-02T05:43:13.333Z,63.07
2023-05-02T05:45:40.876Z,63.02
2023-05-02T05:48:08.524Z,64.61
2023-05-02T05:50:41.894Z,63.52
2023-05-02T05:53:09.388Z,63.84
2023-05-02T05:55:40.789Z,61.98
2023-05-02T05:58:09.961Z,61.75
2023-05-02T06:00:40.319Z,62.07
2023-05-02T06:03:09.819Z,61.07
2023-05-02T06:05:39.252Z,59.25
2023-05-02T06:08:07.995Z,59.89
2023-05-02T06:10:35.652Z,59.84
2023-05-02T06:13:03.766Z,58.84
2023-05-02T06:15:35.662Z,57.88
2023-05-02T06:18:05.560Z,58.55
2023-05-02T06:20:33.214Z,57.10
2023-05-02T06:23:00.712Z,56.03
2023-05-02T06:25:28.254Z,54.07
2023-05-02T06:27:55.824Z,53.48
2023-05-02T06:30:23.357Z,53.67
2023-05-02T06:32:50.883Z,52.75
2023-05-02T06:35:18.490Z,48.84
2023-05-02T06:37:45.977Z,44.86
2023-05-02T06:40:13.881Z,44.64
2023-05-02T06:42:41.417Z,44.88
2023-05-02T06:45:09.138Z,41.30
2023-05-02T06:47:36.622Z,40.39
2023-05-02T06:50:04.380Z,40.96
2023-05-02T06:52:31.832Z,42.17
2023-05-02T06:54:59.285Z,39.79
2023-05-02T06:57:26.960Z,40.94
2023-05-02T06:59:54.487Z,39.78
2023-05-02T07:02:22.361Z,38.03
2023-05-02T07:04:49.970Z,38.34
2023-05-02T07:07:18.988Z,37.17
2023-05-02T07:09:48.899Z,38.69
2023-05-02T07:12:16.389Z,36.79
2023-05-02T07:14:44.460Z,36.42
2023-05-02T07:17:11.917Z,38.93
2023-05-02T07:19:39.466Z,36.79
2023-05-02T07:22:07.368Z,35.98
2023-05-02T07:24:35.096Z,35.57
2023-05-02T07:27:03.360Z,35.55
2023-05-02T07:29:30.817Z,36.50
2023-05-02T07:31:58.357Z,36.57
2023-05-02T07:34:25.813Z,36.61
2023-05-02T07:36:53.318Z,37.18
2023-05-02T07:39:20.896Z,36.62
2023-05-02T07:41:51.206Z,34.88
2023-05-02T07:44:18.668Z,35.75
2023-05-02T07:46:46.296Z,34.07
2023-05-02T07:49:14.769Z,35.83
2023-05-02T07:51:42.640Z,34.05
2023-05-02T07:54:36.187Z,35.13
2023-05-02T07:57:05.237Z,34.05
2023-05-02T07:59:32.687Z,34.96
2023-05-02T08:02:00.455Z,33.46
2023-05-02T08:04:28.804Z,32.94
2023-05-02T08:06:56.664Z,32.58
2023-05-02T08:09:24.267Z,32.80
2023-05-02T08:11:51.838Z,33.78
2023-05-02T08:14:19.388Z,33.35
2023-05-02T08:16:46.931Z,32.82
2023-05-02T08:19:15.284Z,33.71
2023-05-02T08:21:43.687Z,33.35
2023-05-02T08:24:11.275Z,32.05
2023-05-02T08:26:38.751Z,31.67
2023-05-02T08:29:06.243Z,32.36
2023-05-02T08:31:34.140Z,32.60
2023-05-02T08:34:01.668Z,32.25
2023-05-02T08:36:29.258Z,32.26
2023-05-02T08:38:56.842Z,31.66
2023-05-02T08:41:24.968Z,33.44
2023-05-02T08:43:53.577Z,32.62
2023-05-02T08:46:24.621Z,30.39
2023-05-02T08:48:53.407Z,31.30
2023-05-02T08:51:24.088Z,30.95
2023-05-02T08:53:53.379Z,31.73
2023-05-02T08:56:21.855Z,31.23
2023-05-02T08:58:49.323Z,31.15
2023-05-02T09:01:19.508Z,31.64
2023-05-02T09:03:48.697Z,30.77
2023-05-02T09:06:19.315Z,31.44
2023-05-02T09:08:50.821Z,31.32
2023-05-02T09:11:19.110Z,32.59
2023-05-02T09:13:51.832Z,32.59
2023-05-02T09:16:25.805Z,31.74
2023-05-02T09:18:58.661Z,30.98
2023-05-02T09:21:37.393Z,31.83
2023-05-02T09:24:21.509Z,31.93
2023-05-02T09:27:03.217Z,32.96
2023-05-02T09:29:37.915Z,30.15
2023-05-02T09:32:08.309Z,28.50
2023-05-02T09:34:38.982Z,29.61
2023-05-02T09:37:06.655Z,31.52
2023-05-02T09:39:34.150Z,30.88
2023-05-02T09:42:03.550Z,29.61
2023-05-02T09:44:39.337Z,30.04
2023-05-02T09:47:09.315Z,30.89
2023-05-02T09:49:47.145Z,29.39
2023-05-02T09:52:21.715Z,29.84
2023-05-02T09:54:53.353Z,30.58
2023-05-02T09:57:21.996Z,28.80
2023-05-02T09:59:57.836Z,30.13
2023-05-02T10:02:26.566Z,30.81
2023-05-02T10:04:59.012Z,29.92
2023-05-02T10:07:27.215Z,29.80
2023-05-02T10:09:56.711Z,31.04
2023-05-02T10:12:27.384Z,29.96
2023-05-02T10:15:04.445Z,31.22
2023-05-02T10:20:08.593Z,30.07
2023-05-02T10:22:36.985Z,30.73
2023-05-02T10:25:08.038Z,30.01
2023-05-02T10:27:35.696Z,29.86
2023-05-02T10:30:04.720Z,31.28
2023-05-02T10:32:34.875Z,31.63
2023-05-02T10:35:08.384Z,31.03
2023-05-02T10:37:40.275Z,30.35
2023-05-02T10:40:12.654Z,29.80
2023-05-02T10:42:45.913Z,28.10
2023-05-02T10:45:33.998Z,29.10
2023-05-02T10:48:22.333Z,29.14
2023-05-02T10:51:03.814Z,29.41
2023-05-02T10:53:40.397Z,29.26
2023-05-02T10:56:26.474Z,28.92
2023-05-02T10:59:28.776Z,28.02
2023-05-02T11:01:57.983Z,28.67
2023-05-02T11:04:25.752Z,28.19
2023-05-02T11:07:02.343Z,26.09
2023-05-02T11:09:29.706Z,26.82
2023-05-02T11:11:57.590Z,25.98
2023-05-02T11:14:29.263Z,26.17
2023-05-02T11:17:05.555Z,26.28
2023-05-02T11:19:39.071Z,26.75
2023-05-02T11:22:21.910Z,25.82
2023-05-02T11:24:51.122Z,25.22
2023-05-02T11:27:31.306Z,25.19
2023-05-02T11:30:17.115Z,25.29
2023-05-02T11:32:45.514Z,25.29
2023-05-02T11:35:27.932Z,27.39
2023-05-02T11:38:03.773Z,26.70
2023-05-02T11:40:32.595Z,26.71
2023-05-02T11:43:04.408Z,24.90
2023-05-02T11:45:36.506Z,24.95
2023-05-02T11:48:07.950Z,25.47
2023-05-02T11:50:49.674Z,25.83
2023-05-02T11:53:25.040Z,25.11
2023-05-02T11:56:02.392Z,26.13
2023-05-02T11:59:00.012Z,24.77
2023-05-02T12:01:28.397Z,25.85
2023-05-02T12:04:08.265Z,25.80
2023-05-02T12:06:36.489Z,26.17
2023-05-02T12:09:16.510Z,26.33
2023-05-02T12:11:44.473Z,26.98
2023-05-02T12:14:12.051Z,26.43
2023-05-02T12:16:39.670Z,26.43
2023-05-02T12:19:07.693Z,27.21
2023-05-02T12:21:35.919Z,26.18
2023-05-02T12:24:04.376Z,27.10
2023-05-02T12:26:33.171Z,26.54
2023-05-02T12:29:02.781Z,26.22
2023-05-02T12:31:32.314Z,27.54
2023-05-02T12:34:01.343Z,28.13
2023-05-02T12:36:29.914Z,26.38
2023-05-02T12:38:59.850Z,26.13
2023-05-02T12:41:39.618Z,26.32
2023-05-02T12:44:07.926Z,25.51
2023-05-02T12:46:38.865Z,25.90
2023-05-02T12:49:09.501Z,24.96
2023-05-02T12:51:38.709Z,25.93
2023-05-02T12:54:07.111Z,26.30
2023-05-02T12:56:43.740Z,26.25
2023-05-02T12:59:30.809Z,26.48
2023-05-02T13:02:00.617Z,27.36
2023-05-02T13:04:42.188Z,26.70
2023-05-02T13:07:11.255Z,26.05
2023-05-02T13:09:38.944Z,25.89
2023-05-02T13:12:06.830Z,26.67
2023-05-02T13:14:34.432Z,26.37
2023-05-02T13:17:02.071Z,27.35
2023-05-02T13:19:31.511Z,26.28
2023-05-02T13:21:59.339Z,26.36
2023-05-02T13:24:26.932Z,26.40
2023-05-02T13:26:54.316Z,26.43
2023-05-02T13:29:21.842Z,27.35
2023-05-02T13:31:49.247Z,27.16
2023-05-02T13:34:16.772Z,27.58
2023-05-02T13:36:46.359Z,26.92
2023-05-02T13:39:14.483Z,28.20
2023-05-02T13:41:42.009Z,27.30
2023-05-02T13:44:10.025Z,27.28
2023-05-02T13:46:38.507Z,26.70
2023-05-02T13:49:06.531Z,26.46
2023-05-02T13:51:34.099Z,26.69
2023-05-02T13:54:02.478Z,26.30
2023-05-02T13:56:30.039Z,26.64
2023-05-02T13:58:57.760Z,27.07
2023-05-02T14:01:28.231Z,26.67
2023-05-02T14:03:56.009Z,26.11
2023-05-02T14:06:23.791Z,26.18
2023-05-02T14:08:52.903Z,26.64
2023-05-02T14:11:20.356Z,27.75
2023-05-02T14:13:48.085Z,27.49
2023-05-02T14:16:17.086Z,27.37
2023-05-02T14:18:45.720Z,27.40
2023-05-02T14:21:13.255Z,27.69
2023-05-02T14:23:40.688Z,27.55
2023-05-02T14:26:08.247Z,27.09
2023-05-02T14:28:38.449Z,27.48
2023-05-02T14:31:07.927Z,28.13
2023-05-02T14:33:35.668Z,29.26
2023-05-02T14:36:03.878Z,28.11
2023-05-02T14:38:38.872Z,29.29
2023-05-02T14:41:07.036Z,29.56
2023-05-02T14:43:37.204Z,28.45
2023-05-02T14:46:08.076Z,28.05
2023-05-02T14:48:36.170Z,27.34
2023-05-02T14:51:07.520Z,27.51
2023-05-02T14:53:39.465Z,27.92
2023-05-02T14:56:14.070Z,28.41
2023-05-02T14:58:42.040Z,28.39
2023-05-02T15:01:19.964Z,28.71
2023-05-02T15:04:05.206Z,28.67
2023-05-02T15:06:34.923Z,28.70
2023-05-02T15:09:05.163Z,28.16
2023-05-02T15:11:33.105Z,29.80
2023-05-02T15:14:00.941Z,28.91
2023-05-02T15:16:29.040Z,28.75
2023-05-02T15:18:56.568Z,28.40
2023-05-02T15:21:26.959Z,29.39
2023-05-02T15:23:54.509Z,29.27
2023-05-02T15:26:23.233Z,28.73
2023-05-02T15:28:50.766Z,28.35
2023-05-02T15:31:18.385Z,29.10
2023-05-02T15:33:45.969Z,29.20
2023-05-02T15:36:14.289Z,29.42
2023-05-02T15:38:43.094Z,29.85
2023-05-02T15:41:13.676Z,29.75
2023-05-02T15:43:41.236Z,30.71
2023-05-02T15:46:08.890Z,29.76
2023-05-02T15:48:36.529Z,29.96
2023-05-02T15:51:05.650Z,29.72
2023-05-02T15:53:34.905Z,29.82
2023-05-02T15:56:02.438Z,30.27
2023-05-02T15:58:30.113Z,30.69
2023-05-02T16:00:57.870Z,30.71
2023-05-02T16:03:25.491Z,31.07
2023-05-02T16:05:58.036Z,31.23
2023-05-02T16:08:27.165Z,30.74
2023-05-02T16:10:56.072Z,30.52
2023-05-02T16:13:23.739Z,30.80
2023-05-02T16:15:54.550Z,30.97
2023-05-02T16:18:28.118Z,30.60
2023-05-02T16:20:59.121Z,31.10
2023-05-02T16:23:27.912Z,30.96
2023-05-02T16:26:01.689Z,30.84
2023-05-02T16:28:31.796Z,31.30
2023-05-02T16:30:59.357Z,31.08
2023-05-02T16:33:28.048Z,30.94
2023-05-02T16:36:05.455Z,31.91
2023-05-02T16:38:33.509Z,32.01
2023-05-02T16:41:07.302Z,31.82
2023-05-02T16:43:35.008Z,32.46
2023-05-02T16:46:07.338Z,33.26
2023-05-02T16:48:35.773Z,33.20
2023-05-02T16:51:04.383Z,33.31
2023-05-02T16:53:32.146Z,33.55
2023-05-02T16:55:59.985Z,33.97
2023-05-02T16:58:32.665Z,34.00
2023-05-02T17:01:01.608Z,34.00
2023-05-02T17:03:30.368Z,34.29
2023-05-02T17:06:02.059Z,34.26
2023-05-02T17:08:30.536Z,34.08
2023-05-02T17:10:58.134Z,34.50
2023-05-02T17:13:25.664Z,34.93
2023-05-02T17:15:53.791Z,35.28
2023-05-02T17:18:22.447Z,35.46
2023-05-02T17:20:52.117Z,35.44
2023-05-02T17:23:19.991Z,36.17
2023-05-02T17:25:47.830Z,36.44
2023-05-02T17:28:15.348Z,36.14
2023-05-02T17:30:44.255Z,36.80
2023-05-02T17:33:11.897Z,36.87
2023-05-02T17:35:40.000Z,36.63
2023-05-02T17:38:09.918Z,37.12
2023-05-02T17:40:38.276Z,37.89
2023-05-02T17:43:08.862Z,38.24
2023-05-02T17:45:36.497Z,39.20
2023-05-02T17:48:04.675Z,39.83
2023-05-02T17:50:36.699Z,40.45
2023-05-02T17:53:05.470Z,41.31
2023-05-02T17:55:37.235Z,41.59
2023-05-02T17:58:07.099Z,41.99
2023-05-02T18:00:34.701Z,42.16
2023-05-02T18:03:19.479Z,42.37
2023-05-02T18:05:47.838Z,42.60
2023-05-02T18:08:18.927Z,42.50
2023-05-02T18:10:49.265Z,42.19
2023-05-02T18:13:24.406Z,42.82
2023-05-02T18:15:59.731Z,42.39
2023-05-02T18:18:30.256Z,42.70
2023-05-02T18:20:58.408Z,42.27
2023-05-02T18:23:26.035Z,42.16
2023-05-02T18:25:53.695Z,41.95
2023-05-02T18:28:22.949Z,41.85
2023-05-02T18:30:52.435Z,41.95
2023-05-02T18:33:20.791Z,41.99
2023-05-02T18:35:50.227Z,42.08
2023-05-02T18:38:20.396Z,41.56
2023-05-02T18:40:48.697Z,42.23
2023-05-02T18:43:16.278Z,43.05
2023-05-02T18:45:47.449Z,42.84
2023-05-02T18:48:14.929Z,43.09
2023-05-02T18:50:42.633Z,43.38
2023-05-02T18:53:13.401Z,43.48
2023-05-02T18:55:41.254Z,44.02
2023-05-02T18:58:10.233Z,44.82
2023-05-02T19:00:39.890Z,44.83
2023-05-02T19:03:07.978Z,44.47
2023-05-02T19:05:39.006Z,44.68
2023-05-02T19:08:08.669Z,44.82
2023-05-02T19:10:38.151Z,44.45
2023-05-02T19:13:05.928Z,44.29
2023-05-02T19:15:38.369Z,43.95
2023-05-02T19:18:07.809Z,43.88
2023-05-02T19:20:35.706Z,43.31
2023-05-02T19:23:19.108Z,42.98
2023-05-02T19:25:50.224Z,42.88
2023-05-02T19:28:20.973Z,42.45
2023-05-02T19:30:50.960Z,42.90
2023-05-02T19:33:26.772Z,42.59
2023-05-02T19:36:01.588Z,42.71
2023-05-02T19:38:32.905Z,42.45
2023-05-02T19:41:04.325Z,42.21
2023-05-02T19:43:33.653Z,42.28
2023-05-02T19:46:02.934Z,41.96
2023-05-02T19:48:36.201Z,42.41
2023-05-02T19:51:06.149Z,42.39
2023-05-02T19:53:36.213Z,41.93
2023-05-02T19:56:07.069Z,41.15
2023-05-02T19:58:38.837Z,41.57
2023-05-02T20:01:08.923Z,40.93
2023-05-02T20:03:37.017Z,41.68
2023-05-02T20:06:07.966Z,41.86
2023-05-02T20:08:39.511Z,41.42
2023-05-02T20:11:10.623Z,41.72
2023-05-02T20:13:41.776Z,41.60
2023-05-02T20:16:10.892Z,42.18
2023-05-02T20:18:42.447Z,42.04
2023-05-02T20:21:10.779Z,43.02
2023-05-02T20:23:43.353Z,42.49
2023-05-02T20:26:11.493Z,42.43
2023-05-02T20:28:41.642Z,43.14
2023-05-02T20:31:09.733Z,42.95
2023-05-02T20:33:45.157Z,43.50
2023-05-02T20:36:14.951Z,43.51
2023-05-02T20:38:53.239Z,43.84
2023-05-02T20:41:21.441Z,43.84
2023-05-02T20:43:49.782Z,44.96
2023-05-02T20:46:17.577Z,44.97
2023-05-02T20:48:48.328Z,45.23
2023-05-02T20:51:16.745Z,45.36
2023-05-02T20:53:44.884Z,45.03
2023-05-02T20:56:12.424Z,45.72
2023-05-02T20:58:39.854Z,46.00
2023-05-02T21:01:07.695Z,45.74
2023-05-02T21:03:39.277Z,45.79
2023-05-02T21:06:07.114Z,46.07
2023-05-02T21:08:35.358Z,46.05
2023-05-02T21:11:03.228Z,45.96
2023-05-02T21:13:31.910Z,46.64
2023-05-02T21:15:59.436Z,46.43
2023-05-02T21:18:26.943Z,46.13
2023-05-02T21:20:54.479Z,46.24
2023-05-02T21:23:21.934Z,45.61
2023-05-02T21:25:49.367Z,45.94
2023-05-02T21:28:16.817Z,45.76
2023-05-02T21:30:44.420Z,46.32
2023-05-02T21:33:13.367Z,45.63
2023-05-02T21:35:40.872Z,46.38
2023-05-02T21:38:08.400Z,46.98
2023-05-02T21:40:39.396Z,46.89
2023-05-02T21:43:06.948Z,47.17
2023-05-02T21:45:34.813Z,47.68
2023-05-02T21:48:02.704Z,48.30
2023-05-02T21:50:30.282Z,48.75
2023-05-02T21:52:57.712Z,48.77
2023-05-02T21:55:25.350Z,49.17
2023-05-02T21:57:52.899Z,49.13
2023-05-02T22:00:20.697Z,49.21
2023-05-02T22:02:48.402Z,48.76
2023-05-02T22:05:16.553Z,48.18
2023-05-02T22:07:44.027Z,49.03
2023-05-02T22:10:11.990Z,49.17
2023-05-02T22:12:39.560Z,49.08
2023-05-02T22:15:09.699Z,49.00
2023-05-02T22:17:37.453Z,48.93
2023-05-02T22:20:08.241Z,49.23
2023-05-02T22:22:35.838Z,48.79
2023-05-02T22:25:03.367Z,48.72
2023-05-02T22:27:30.966Z,48.73
2023-05-02T22:29:58.556Z,48.72
2023-05-02T22:32:26.944Z,49.37
2023-05-02T22:34:54.512Z,49.76
2023-05-02T22:37:21.981Z,49.91
2023-05-02T22:39:49.631Z,50.44
2023-05-02T22:42:17.316Z,49.94
2023-05-02T22:44:53.517Z,49.81
2023-05-02T22:47:22.213Z,49.67
2023-05-02T22:49:51.073Z,50.60
2023-05-02T22:52:18.637Z,49.81
2023-05-02T22:54:46.168Z,50.40
2023-05-02T22:57:13.634Z,51.29
2023-05-02T22:59:41.248Z,51.87
2023-05-02T23:02:12.190Z,52.00
2023-05-02T23:04:39.648Z,51.17
2023-05-02T23:07:07.585Z,50.90
2023-05-02T23:09:35.056Z,50.16
2023-05-02T23:12:03.902Z,50.84
2023-05-02T23:14:31.413Z,50.77
2023-05-02T23:17:01.078Z,50.43
2023-05-02T23:19:28.793Z,50.69
2023-05-02T23:21:56.850Z,50.85
2023-05-02T23:24:24.378Z,49.98
2023-05-02T23:26:52.258Z,49.23
2023-05-02T23:29:19.984Z,49.41
2023-05-02T23:31:54.543Z,48.57
2023-05-02T23:34:22.736Z,48.14
2023-05-02T23:36:51.853Z,48.12
2023-05-02T23:39:19.584Z,48.76
2023-05-02T23:41:47.161Z,48.63
2023-05-02T23:44:14.637Z,49.09
2023-05-02T23:46:42.134Z,48.89
2023-05-02T23:49:09.863Z,49.25
2023-05-02T23:51:37.811Z,49.46
2023-05-02T23:54:05.416Z,49.48
2023-05-02T23:56:32.860Z,49.47
2023-05-02T23:59:00.269Z,49.55
